Time;durP1;ratioP1;P1;durP2;ratioP2;P2;SDS_P1;SDS_P2;PMS_P1;PMS_P2;Temp;Humidity;BMP_temperature;BMP_pressure;BME280_temperature;BME280_humidity;BME280_pressure;Samples;Min_cycle;Max_cycle;Signal;HPM_P1;HPM_P2
2021/09/21 00:00:44;;;;;;;;;;;;;;;10.13;100.00;101810.59;4973578;28;20398;-65
2021/09/21 00:03:10;;;;;;;;;;;;;;;10.11;100.00;101815.22;4973262;28;19971;-65
2021/09/21 00:05:37;;;;;;;;;;;;;;;10.14;100.00;101808.75;4973234;28;20358;-65
2021/09/21 00:08:05;;;;;;;;;;;;;;;10.15;100.00;101815.91;4972453;28;20029;-65
2021/09/21 00:10:32;;;;;;;;;;;;;;;10.13;100.00;101821.44;4972753;28;20579;-65
2021/09/21 00:12:58;;;;;;;;;;;;;;;10.13;100.00;101820.56;4972955;28;20045;-65
2021/09/21 00:15:25;;;;;;;;;;;;;;;10.12;100.00;101814.28;4971219;28;20029;-65
2021/09/21 00:17:52;;;;;;;;;;;;;;;10.10;100.00;101821.66;4972659;28;20374;-65
2021/09/21 00:20:18;;;;;;;;;;;;;;;10.09;100.00;101813.56;4972783;28;19981;-65
2021/09/21 00:22:45;;;;;;;;;;;;;;;10.11;100.00;101823.38;4973216;28;20358;-65
2021/09/21 00:25:14;;;;;;;;;;;;;;;10.11;100.00;101825.22;4972676;28;19957;-65
2021/09/21 00:27:41;;;;;;;;;;;;;;;10.13;100.00;101813.31;4972567;28;20460;-65
2021/09/21 00:30:10;;;;;;;;;;;;;;;10.14;100.00;101820.50;4971411;28;20055;-65
2021/09/21 00:32:36;;;;;;;;;;;;;;;10.12;100.00;101811.56;4972929;28;20366;-65
2021/09/21 00:35:03;;;;;;;;;;;;;;;10.09;100.00;101809.03;4972809;28;19957;-65
2021/09/21 00:37:30;;;;;;;;;;;;;;;10.05;100.00;101807.50;4972351;28;20024;-65
2021/09/21 00:39:56;;;;;;;;;;;;;;;10.01;100.00;101804.09;4972335;28;19926;-65
2021/09/21 00:42:25;;;;;;;;;;;;;;;10.00;100.00;101812.31;4972484;28;20425;-65
2021/09/21 00:44:54;;;;;;;;;;;;;;;10.00;100.00;101815.03;4972678;28;19956;-65
2021/09/21 00:47:20;;;;;;;;;;;;;;;10.01;100.00;101819.50;4972146;28;19930;-65
2021/09/21 00:49:47;;;;;;;;;;;;;;;9.98;100.00;101809.72;4972778;28;19957;-65
2021/09/21 00:52:13;;;;;;;;;;;;;;;9.99;100.00;101813.28;4972399;28;20158;-65
2021/09/21 00:54:39;;;;;;;;;;;;;;;9.99;100.00;101818.72;4972708;28;20021;-65
2021/09/21 00:57:05;;;;;;;;;;;;;;;9.98;100.00;101823.28;4972675;28;19965;-65
2021/09/21 00:59:33;;;;;;;;;;;;;;;9.96;100.00;101824.34;4972081;28;20029;-65
2021/09/21 01:01:59;;;;;;;;;;;;;;;9.94;100.00;101826.25;4972628;28;20036;-65
2021/09/21 01:04:26;;;;;;;;;;;;;;;9.93;100.00;101828.09;4972212;28;20032;-65
2021/09/21 01:06:52;;;;;;;;;;;;;;;9.92;100.00;101826.34;4972127;28;19926;-65
2021/09/21 01:09:19;;;;;;;;;;;;;;;9.94;100.00;101832.56;4972232;28;20013;-65
2021/09/21 01:11:46;;;;;;;;;;;;;;;9.95;100.00;101826.16;4972473;28;20428;-65
2021/09/21 01:14:12;;;;;;;;;;;;;;;9.99;100.00;101829.56;4972277;28;19926;-65
2021/09/21 01:16:39;;;;;;;;;;;;;;;9.98;100.00;101830.53;4972221;28;20379;-65
2021/09/21 01:19:06;;;;;;;;;;;;;;;10.00;100.00;101826.75;4972381;28;20013;-65
2021/09/21 01:21:33;;;;;;;;;;;;;;;10.01;100.00;101820.38;4972128;28;20025;-65
2021/09/21 01:23:59;;;;;;;;;;;;;;;10.00;100.00;101832.19;4972390;28;20445;-66
2021/09/21 01:26:26;;;;;;;;;;;;;;;10.00;100.00;101834.03;4970330;28;20367;-65
2021/09/21 01:28:52;;;;;;;;;;;;;;;10.01;100.00;101827.63;4975395;28;19958;-65
2021/09/21 01:31:19;;;;;;;;;;;;;;;10.01;100.00;101842.06;4976027;28;20461;-65
2021/09/21 01:33:46;;;;;;;;;;;;;;;10.00;100.00;101843.03;4976263;28;19962;-65
2021/09/21 01:36:14;;;;;;;;;;;;;;;10.01;100.00;101838.50;4975570;28;19973;-65
2021/09/21 01:38:41;;;;;;;;;;;;;;;10.01;100.00;101831.22;4975472;28;19991;-66
2021/09/21 01:41:08;;;;;;;;;;;;;;;10.02;100.00;101838.41;4975981;28;20022;-66
2021/09/21 01:43:35;;;;;;;;;;;;;;;10.02;100.00;101837.50;4974989;28;21549;-66
2021/09/21 01:46:02;;;;;;;;;;;;;;;10.03;100.00;101833.81;4975406;28;20021;-65
2021/09/21 01:48:28;;;;;;;;;;;;;;;10.03;100.00;101829.28;4975285;28;19926;-65
2021/09/21 01:50:57;;;;;;;;;;;;;;;10.03;100.00;101834.72;4975743;28;20020;-65
2021/09/21 01:53:33;;;;;;;;;;;;;;;10.04;100.00;101827.44;4975644;28;19926;-65
2021/09/21 01:58:48;;;;;;;;;;;;;;;10.07;100.00;101831.81;4975499;28;19949;-66
2021/09/21 02:01:15;;;;;;;;;;;;;;;10.07;100.00;101829.09;4975487;28;19932;-65
2021/09/21 02:03:42;;;;;;;;;;;;;;;10.06;100.00;101828.19;4975413;28;19980;-65
2021/09/21 02:06:08;;;;;;;;;;;;;;;10.10;100.00;101818.03;4975245;28;20389;-65
2021/09/21 02:08:34;;;;;;;;;;;;;;;10.11;100.00;101825.22;4975212;28;20054;-65
2021/09/21 02:11:02;;;;;;;;;;;;;;;10.12;100.00;101822.41;4975419;28;20013;-66
2021/09/21 02:13:28;;;;;;;;;;;;;;;10.12;100.00;101825.13;4974931;28;20044;-65
2021/09/21 02:15:55;;;;;;;;;;;;;;;10.13;100.00;101832.31;4975183;28;20025;-65
2021/09/21 02:18:21;;;;;;;;;;;;;;;10.14;100.00;101830.44;4974593;28;19965;-65
2021/09/21 02:20:48;;;;;;;;;;;;;;;10.12;100.00;101832.41;4975257;28;20029;-65
2021/09/21 02:23:14;;;;;;;;;;;;;;;10.11;100.00;101833.38;4975118;28;20025;-65
2021/09/21 02:25:40;;;;;;;;;;;;;;;10.11;100.00;101831.50;4974548;28;19965;-65
2021/09/21 02:28:08;;;;;;;;;;;;;;;10.09;100.00;101822.59;4973682;28;20373;-65
2021/09/21 02:30:35;;;;;;;;;;;;;;;10.11;100.00;101825.22;4974898;28;19958;-65
2021/09/21 02:33:01;;;;;;;;;;;;;;;10.11;100.00;101826.09;4974853;28;20012;-65
2021/09/21 02:35:28;;;;;;;;;;;;;;;10.11;100.00;101820.66;4974608;28;19989;-65
2021/09/21 02:37:54;;;;;;;;;;;;;;;10.12;100.00;101822.41;4974649;28;19926;-65
2021/09/21 02:40:20;;;;;;;;;;;;;;;10.12;100.00;101827.84;4973811;28;20012;-65
2021/09/21 02:42:46;;;;;;;;;;;;;;;10.12;100.00;101810.69;4974743;28;19999;-65
2021/09/21 02:45:14;;;;;;;;;;;;;;;10.13;100.00;101813.31;4974339;28;20348;-65
2021/09/21 02:47:40;;;;;;;;;;;;;;;10.11;100.00;101820.66;4974445;28;20024;-65
2021/09/21 02:50:08;;;;;;;;;;;;;;;10.11;100.00;101817.94;4974708;28;20402;-65
2021/09/21 02:52:35;;;;;;;;;;;;;;;10.11;100.00;101820.66;4974482;28;20037;-65
2021/09/21 02:55:03;;;;;;;;;;;;;;;10.10;100.00;101823.47;4974534;28;20374;-66
2021/09/21 02:57:29;;;;;;;;;;;;;;;10.10;100.00;101832.50;4974303;28;20006;-65
2021/09/21 02:59:56;;;;;;;;;;;;;;;10.07;100.00;101835.38;4974374;28;20305;-65
2021/09/21 03:02:24;;;;;;;;;;;;;;;10.07;100.00;101837.22;4974442;28;19981;-65
2021/09/21 03:04:54;;;;;;;;;;;;;;;10.06;100.00;101844.47;4973816;28;19936;-65
2021/09/21 03:07:28;;;;;;;;;;;;;;;10.05;100.00;101846.34;4974221;28;20325;-65
2021/09/21 03:10:08;;;;;;;;;;;;;;;10.08;100.00;101845.28;4974358;28;19933;-65
2021/09/21 03:12:57;;;;;;;;;;;;;;;10.10;100.00;101848.78;4974424;28;19965;-65
2021/09/21 03:18:08;;;;;;;;;;;;;;;10.14;100.00;101841.31;4973897;28;20417;-65
2021/09/21 03:20:35;;;;;;;;;;;;;;;10.14;100.00;101839.47;4974067;28;19973;-65
2021/09/21 03:23:01;;;;;;;;;;;;;;;10.13;100.00;101843.16;4973394;28;19969;-65
2021/09/21 03:25:27;;;;;;;;;;;;;;;10.12;100.00;101852.25;4973906;28;19989;-65
2021/09/21 03:27:54;;;;;;;;;;;;;;;10.11;100.00;101850.50;4973703;28;20405;-65
2021/09/21 03:30:20;;;;;;;;;;;;;;;10.11;100.00;101855.06;4973940;28;19984;-65
2021/09/21 03:32:46;;;;;;;;;;;;;;;10.10;100.00;101859.63;4973570;28;19972;-65
2021/09/21 03:35:14;;;;;;;;;;;;;;;10.11;100.00;101864.06;4974029;28;20402;-65
2021/09/21 03:37:40;;;;;;;;;;;;;;;10.10;100.00;101866.88;4973698;28;20369;-66
2021/09/21 03:40:08;;;;;;;;;;;;;;;10.10;100.00;101853.31;4973464;28;20130;-65
2021/09/21 03:42:34;;;;;;;;;;;;;;;10.10;100.00;101851.50;4974094;28;19981;-65
2021/09/21 03:45:01;;;;;;;;;;;;;;;10.08;100.00;101856.13;4973567;28;20033;-65
2021/09/21 03:47:27;;;;;;;;;;;;;;;10.05;100.00;101857.19;4973327;28;20028;-65
2021/09/21 03:49:53;;;;;;;;;;;;;;;10.03;100.00;101858.25;4973360;28;20020;-66
2021/09/21 03:52:21;;;;;;;;;;;;;;;10.02;100.00;101867.34;4973452;28;19992;-65
2021/09/21 03:54:47;;;;;;;;;;;;;;;9.99;100.00;101862.13;4973367;28;20393;-65
2021/09/21 03:57:14;;;;;;;;;;;;;;;9.96;100.00;101855.03;4972879;28;20012;-65
2021/09/21 03:59:40;;;;;;;;;;;;;;;9.92;100.00;101856.19;4973348;28;19926;-65
2021/09/21 04:02:06;;;;;;;;;;;;;;;9.91;100.00;101856.28;4971755;28;20029;-65
2021/09/21 04:04:32;;;;;;;;;;;;;;;9.89;100.00;101861.81;4972977;28;20018;-65
2021/09/21 04:06:59;;;;;;;;;;;;;;;9.87;100.00;101859.19;4973048;28;20018;-65
2021/09/21 04:09:26;;;;;;;;;;;;;;;9.82;100.00;101854.97;4973248;28;20025;-65
2021/09/21 04:11:52;;;;;;;;;;;;;;;9.78;100.00;101848.91;4973253;28;20105;-65
2021/09/21 04:14:19;;;;;;;;;;;;;;;9.76;100.00;101855.38;4972913;28;20017;-65
2021/09/21 04:16:45;;;;;;;;;;;;;;;9.71;100.00;101855.63;4972412;28;20022;-65
2021/09/21 04:19:11;;;;;;;;;;;;;;;9.67;100.00;101875.75;4972449;28;20480;-65
2021/09/21 04:21:37;;;;;;;;;;;;;;;9.67;100.00;101884.78;4972792;28;20017;-65
2021/09/21 04:24:04;;;;;;;;;;;;;;;9.68;100.00;101882.94;4972982;28;20016;-65
2021/09/21 04:26:32;;;;;;;;;;;;;;;9.69;100.00;101884.69;4972087;28;20013;-65
2021/09/21 04:28:58;;;;;;;;;;;;;;;9.66;100.00;101883.03;4971719;28;19975;-65
2021/09/21 04:31:27;;;;;;;;;;;;;;;9.63;100.00;101888.63;4972213;28;20408;-65
2021/09/21 04:33:54;;;;;;;;;;;;;;;9.66;100.00;101892.97;4971980;28;19927;-65
2021/09/21 04:36:21;;;;;;;;;;;;;;;9.67;100.00;101890.22;4972024;28;19980;-65
2021/09/21 04:38:48;;;;;;;;;;;;;;;9.70;100.00;101886.41;4972342;28;20040;-65
2021/09/21 04:41:14;;;;;;;;;;;;;;;9.72;100.00;101898.91;4972531;28;19933;-65
2021/09/21 04:43:42;;;;;;;;;;;;;;;9.74;100.00;101890.72;4972087;28;20125;-65
2021/09/21 04:46:09;;;;;;;;;;;;;;;9.74;100.00;101895.25;4972229;28;20029;-65
2021/09/21 04:48:36;;;;;;;;;;;;;;;9.71;100.00;101897.19;4972044;28;20360;-65
2021/09/21 04:51:02;;;;;;;;;;;;;;;9.74;100.00;101901.56;4972435;28;20379;-65
2021/09/21 04:53:29;;;;;;;;;;;;;;;9.73;100.00;101902.53;4971592;28;20339;-65
2021/09/21 04:55:55;;;;;;;;;;;;;;;9.74;100.00;101907.00;4972310;28;20021;-65
2021/09/21 04:58:21;;;;;;;;;;;;;;;9.76;100.00;101905.03;4972161;28;20030;-65
2021/09/21 05:00:50;;;;;;;;;;;;;;;9.77;100.00;101903.19;4972033;28;20025;-65
2021/09/21 05:03:16;;;;;;;;;;;;;;;9.78;100.00;101905.84;4971014;28;19973;-65
2021/09/21 05:05:42;;;;;;;;;;;;;;;9.79;100.00;101914.84;4971862;28;20322;-65
2021/09/21 05:08:08;;;;;;;;;;;;;;;9.82;100.00;101901.09;4971823;28;19961;-65
2021/09/21 05:10:35;;;;;;;;;;;;;;;9.83;100.00;101905.56;4972470;28;20417;-65
2021/09/21 05:13:01;;;;;;;;;;;;;;;9.83;100.00;101905.56;4970884;28;19926;-65
2021/09/21 05:15:27;;;;;;;;;;;;;;;9.83;100.00;101905.56;4971148;28;20429;-65
2021/09/21 05:17:55;;;;;;;;;;;;;;;9.82;100.00;101907.41;4971835;28;20017;-65
2021/09/21 05:20:21;;;;;;;;;;;;;;;9.82;100.00;101907.41;4972118;28;20022;-65
2021/09/21 05:22:51;;;;;;;;;;;;;;;9.85;100.00;101909.94;4971571;28;20426;-64
2021/09/21 05:25:17;;;;;;;;;;;;;;;9.86;100.00;101911.69;4952346;29;20021;-65
2021/09/21 05:27:43;;;;;;;;;;;;;;;9.88;100.00;101909.72;4952837;28;19978;-65
2021/09/21 05:30:11;;;;;;;;;;;;;;;9.91;100.00;101903.25;4952671;28;20021;-65
2021/09/21 05:32:37;;;;;;;;;;;;;;;9.96;100.00;101905.72;4952819;28;19958;-65
2021/09/21 05:35:05;;;;;;;;;;;;;;;9.99;100.00;101908.22;4952724;28;20029;-65
2021/09/21 05:37:32;;;;;;;;;;;;;;;10.04;100.00;101908.81;4958636;28;20013;-65
2021/09/21 05:39:58;;;;;;;;;;;;;;;10.10;100.00;101911.19;4970224;28;19929;-65
2021/09/21 05:42:24;;;;;;;;;;;;;;;10.15;100.00;101917.19;4958989;28;19941;-65
2021/09/21 05:44:51;;;;;;;;;;;;;;;10.17;100.00;101909.81;4966000;28;20025;-65
2021/09/21 05:47:17;;;;;;;;;;;;;;;10.25;100.00;101913.91;4974991;28;20408;-65
2021/09/21 05:49:43;;;;;;;;;;;;;;;10.33;100.00;101915.19;4970304;28;19930;-65
2021/09/21 05:52:11;;;;;;;;;;;;;;;10.40;100.00;101918.44;4971380;28;19957;-65
2021/09/21 05:54:37;;;;;;;;;;;;;;;10.46;100.00;101915.34;4971309;28;19926;-65
2021/09/21 05:57:04;;;;;;;;;;;;;;;10.52;100.00;101906.81;4971507;28;20028;-65
2021/09/21 05:59:30;;;;;;;;;;;;;;;10.58;100.00;101901.97;4976523;28;20017;-65
2021/09/21 06:01:56;;;;;;;;;;;;;;;10.68;100.00;101908.56;4984310;28;20021;-65
2021/09/21 06:04:22;;;;;;;;;;;;;;;10.76;100.00;101913.53;4970897;28;20432;-65
2021/09/21 06:06:49;;;;;;;;;;;;;;;10.78;100.00;101922.44;4971379;28;19969;-65
2021/09/21 06:09:16;;;;;;;;;;;;;;;10.78;100.00;101930.59;4971448;28;19927;-65
2021/09/21 06:11:43;;;;;;;;;;;;;;;10.79;100.00;101929.63;4970750;28;20028;-65
2021/09/21 06:14:09;;;;;;;;;;;;;;;10.83;100.00;101934.75;4976360;28;19957;-65
2021/09/21 06:16:35;;;;;;;;;;;;;;;10.87;100.00;101936.31;4991986;28;20321;-65
2021/09/21 06:19:01;;;;;;;;;;;;;;;10.93;100.00;101940.50;4976938;28;20009;-65
2021/09/21 06:21:28;;;;;;;;;;;;;;;11.01;100.00;101949.03;4964086;28;20393;-65
2021/09/21 06:23:55;;;;;;;;;;;;;;;11.10;100.00;101949.41;4974215;28;19949;-65
2021/09/21 06:26:23;;;;;;;;;;;;;;;11.20;100.00;101956.88;4974808;28;19926;-65
2021/09/21 06:28:49;;;;;;;;;;;;;;;11.29;100.00;101957.22;4973931;28;20029;-65
2021/09/21 06:31:15;;;;;;;;;;;;;;;11.33;100.00;101948.81;4974605;28;20480;-65
2021/09/21 06:33:43;;;;;;;;;;;;;;;11.43;100.00;101949.06;4974203;28;19927;-66
2021/09/21 06:36:11;;;;;;;;;;;;;;;11.56;100.00;101949.13;4973622;28;19926;-66
2021/09/21 06:38:38;;;;;;;;;;;;;;;11.63;100.00;101950.47;4974734;28;19976;-66
2021/09/21 06:41:04;;;;;;;;;;;;;;;11.68;100.00;101961.91;4974004;28;20029;-66
2021/09/21 06:43:32;;;;;;;;;;;;;;;11.73;100.00;101967.03;4972618;28;20017;-66
2021/09/21 06:45:59;;;;;;;;;;;;;;;11.76;100.00;101963.25;4974441;28;20421;-65
2021/09/21 06:48:25;;;;;;;;;;;;;;;11.85;100.00;101963.53;4973836;28;20040;-66
2021/09/21 06:50:52;;;;;;;;;;;;;;;12.00;100.00;101961.63;4974493;28;19926;-65
2021/09/21 06:53:18;;;;;;;;;;;;;;;12.18;100.00;101967.66;4980079;28;20064;-66
2021/09/21 06:55:44;;;;;;;;;;;;;;;12.30;100.00;101967.81;4974111;28;20029;-65
2021/09/21 06:58:11;;;;;;;;;;;;;;;12.39;100.00;101959.88;4980488;28;20480;-65
2021/09/21 07:00:40;;;;;;;;;;;;;;;12.52;100.00;101965.34;4993014;28;20081;-65
2021/09/21 07:03:07;;;;;;;;;;;;;;;12.56;100.00;101955.97;4985055;28;20016;-65
2021/09/21 07:05:33;;;;;;;;;;;;;;;12.52;100.00;101950.84;4973847;28;19937;-65
2021/09/21 07:08:00;;;;;;;;;;;;;;;12.51;100.00;101952.69;4973774;28;19992;-65
2021/09/21 07:10:27;;;;;;;;;;;;;;;12.43;100.00;101954.22;4973706;28;19934;-65
2021/09/21 07:12:53;;;;;;;;;;;;;;;12.38;100.00;101959.97;4977276;28;19973;-65
2021/09/21 07:15:22;;;;;;;;;;;;;;;12.32;100.00;101964.00;4973917;28;20044;-65
2021/09/21 07:17:49;;;;;;;;;;;;;;;12.31;100.00;101964.13;4974871;28;20016;-65
2021/09/21 07:20:16;;;;;;;;;;;;;;;12.28;100.00;101973.38;4973605;28;19926;-65
2021/09/21 07:22:42;;;;;;;;;;;;;;;12.25;100.00;101961.81;4974017;28;19930;-65
2021/09/21 07:25:09;;;;;;;;;;;;;;;12.22;100.00;101965.63;4972961;28;20038;-65
2021/09/21 07:27:35;;;;;;;;;;;;;;;12.27;100.00;101966.16;4973100;28;20025;-65
2021/09/21 07:30:02;;;;;;;;;;;;;;;12.44;100.00;101965.00;4973630;28;20464;-65
2021/09/21 07:32:28;;;;;;;;;;;;;;;12.62;100.00;101962.84;4973415;28;20028;-65
2021/09/21 07:34:56;;;;;;;;;;;;;;;12.88;100.00;101966.44;4974428;28;19965;-65
2021/09/21 07:37:22;;;;;;;;;;;;;;;13.10;100.00;101958.59;4990360;28;20424;-65
2021/09/21 07:39:49;;;;;;;;;;;;;;;13.34;100.00;101964.09;4982496;28;20270;-65
2021/09/21 07:42:17;;;;;;;;;;;;;;;13.45;100.00;101961.47;4972382;28;20012;-65
2021/09/21 07:44:43;;;;;;;;;;;;;;;13.50;100.00;101956.56;4986292;28;19969;-65
2021/09/21 07:47:10;;;;;;;;;;;;;;;13.54;100.00;101966.25;4990742;28;19929;-65
2021/09/21 07:49:36;;;;;;;;;;;;;;;13.60;100.00;101974.97;4973028;28;19961;-65
2021/09/21 07:52:04;;;;;;;;;;;;;;;13.55;100.00;101973.44;4973554;28;19970;-65
2021/09/21 07:54:30;;;;;;;;;;;;;;;13.53;100.00;101975.41;4971434;28;19980;-64
2021/09/21 07:56:56;;;;;;;;;;;;;;;13.56;100.00;101975.19;4967079;28;19930;-65
2021/09/21 07:59:23;;;;;;;;;;;;;;;13.71;100.00;101981.38;4972493;28;19981;-65
2021/09/21 08:01:49;;;;;;;;;;;;;;;13.86;100.00;101986.66;4972702;28;19926;-65
2021/09/21 08:04:15;;;;;;;;;;;;;;;13.84;100.00;101991.34;4972884;28;19930;-64
2021/09/21 08:06:42;;;;;;;;;;;;;;;13.90;100.00;101989.03;4972945;28;20020;-64
2021/09/21 08:09:09;;;;;;;;;;;;;;;13.88;100.00;101991.03;4972110;28;19965;-64
2021/09/21 08:11:36;;;;;;;;;;;;;;;14.00;100.00;101991.97;4972400;28;20472;-64
2021/09/21 08:14:05;;;;;;;;;;;;;;;14.04;100.00;101998.03;4972767;28;19996;-64
2021/09/21 08:16:33;;;;;;;;;;;;;;;14.06;100.00;101988.75;4971736;28;20398;-64
2021/09/21 08:18:59;;;;;;;;;;;;;;;14.21;100.00;101983.09;4972792;28;20291;-64
2021/09/21 08:21:26;;;;;;;;;;;;;;;14.62;100.00;101980.84;4972337;28;20020;-64
2021/09/21 08:23:52;;;;;;;;;;;;;;;14.83;100.00;101978.31;4972732;28;19988;-64
2021/09/21 08:26:20;;;;;;;;;;;;;;;15.22;100.00;101974.25;4972289;28;20021;-64
2021/09/21 08:28:46;;;;;;;;;;;;;;;15.43;100.00;101968.00;4972432;28;19974;-65
2021/09/21 08:31:12;;;;;;;;;;;;;;;15.40;100.00;101966.38;4972417;28;19996;-64
2021/09/21 08:33:39;;;;;;;;;;;;;;;15.69;100.00;101973.22;4971922;28;20028;-65
2021/09/21 08:36:05;;;;;;;;;;;;;;;15.74;100.00;101966.34;4971956;28;19954;-64
2021/09/21 08:38:31;;;;;;;;;;;;;;;15.83;100.00;101955.66;4971387;28;20008;-65
2021/09/21 08:40:58;;;;;;;;;;;;;;;16.40;100.00;101965.34;4972084;28;20361;-64
2021/09/21 08:43:25;;;;;;;;;;;;;;;16.20;100.00;101953.38;4972015;28;19934;-64
2021/09/21 08:45:52;;;;;;;;;;;;;;;16.51;100.00;101950.72;4971623;28;20444;-65
2021/09/21 08:48:19;;;;;;;;;;;;;;;17.08;100.00;101947.59;4971311;28;19934;-65
2021/09/21 08:50:45;;;;;;;;;;;;;;;17.42;100.00;101944.53;4972190;28;20048;-65
2021/09/21 08:53:11;;;;;;;;;;;;;;;17.51;100.00;101949.19;4971401;28;20009;-65
2021/09/21 08:55:37;;;;;;;;;;;;;;;17.79;100.00;101945.78;4972111;28;20017;-65
2021/09/21 08:58:04;;;;;;;;;;;;;;;17.68;100.00;101949.53;4975403;28;19930;-65
2021/09/21 09:00:33;;;;;;;;;;;;;;;17.22;100.00;101955.47;4991359;28;19926;-65
2021/09/21 09:03:03;;;;;;;;;;;;;;;16.93;100.00;101963.56;4976305;28;19980;-65
2021/09/21 09:05:40;;;;;;;;;;;;;;;16.65;100.00;101956.84;4971194;28;19977;-65
2021/09/21 09:08:07;;;;;;;;;;;;;;;16.81;100.00;101965.50;4970132;28;19926;-65
2021/09/21 09:10:33;;;;;;;;;;;;;;;16.96;100.00;101965.16;4971804;28;20460;-65
2021/09/21 09:12:59;;;;;;;;;;;;;;;16.72;100.00;101961.66;4971285;28;20359;-65
2021/09/21 09:15:26;;;;;;;;;;;;;;;17.09;100.00;101963.06;4971266;28;19969;-65
2021/09/21 09:17:54;;;;;;;;;;;;;;;17.45;100.00;101960.75;4971722;28;19927;-65
2021/09/21 09:20:30;;;;;;;;;;;;;;;17.60;100.00;101952.97;4971578;28;19934;-65
2021/09/21 09:22:56;;;;;;;;;;;;;;;17.89;100.00;101949.38;4971623;28;19973;-65
2021/09/21 09:25:24;;;;;;;;;;;;;;;17.98;99.84;101950.44;4971083;28;20358;-65
2021/09/21 09:27:51;;;;;;;;;;;;;;;18.05;100.00;101954.34;4970675;28;19930;-65
2021/09/21 09:30:19;;;;;;;;;;;;;;;18.03;100.00;101959.13;4983222;28;20016;-65
2021/09/21 09:32:46;;;;;;;;;;;;;;;18.03;100.00;101959.13;4984051;28;19985;-65
2021/09/21 09:35:23;;;;;;;;;;;;;;;17.54;100.00;101954.41;4972829;28;20021;-65
2021/09/21 09:37:49;;;;;;;;;;;;;;;16.95;100.00;101946.97;4970696;28;19926;-65
2021/09/21 09:40:15;;;;;;;;;;;;;;;16.87;100.00;101953.97;4971173;28;19961;-64
2021/09/21 09:42:42;;;;;;;;;;;;;;;16.88;100.00;101955.69;4971803;28;20037;-65
2021/09/21 09:45:09;;;;;;;;;;;;;;;16.84;100.00;101951.50;4970516;28;20254;-65
2021/09/21 09:47:44;;;;;;;;;;;;;;;16.60;100.00;101954.53;4971592;28;19961;-65
2021/09/21 09:50:11;;;;;;;;;;;;;;;16.57;100.00;101955.66;4973997;28;20020;-65
2021/09/21 09:52:38;;;;;;;;;;;;;;;16.62;100.00;101947.06;4975238;28;19949;-65
2021/09/21 09:55:05;;;;;;;;;;;;;;;16.93;100.00;101947.13;4974769;28;20024;-65
2021/09/21 09:57:32;;;;;;;;;;;;;;;17.45;100.00;101938.78;4978507;28;20009;-65
2021/09/21 09:59:59;;;;;;;;;;;;;;;17.77;100.00;101940.44;4986517;28;19964;-64
2021/09/21 10:02:27;;;;;;;;;;;;;;;17.78;100.00;101933.06;4978925;28;20021;-65
2021/09/21 10:04:54;;;;;;;;;;;;;;;18.05;100.00;101938.75;4962895;28;19927;-65
2021/09/21 10:07:21;;;;;;;;;;;;;;;17.83;100.00;101942.59;4955144;28;20188;-65
2021/09/21 10:09:49;;;;;;;;;;;;;;;17.91;100.00;101940.00;4955894;28;19954;-65
2021/09/21 10:12:15;;;;;;;;;;;;;;;17.92;100.00;101943.66;4968729;28;20028;-65
2021/09/21 10:14:41;;;;;;;;;;;;;;;17.62;100.00;101934.47;4974672;28;20108;-65
2021/09/21 10:17:08;;;;;;;;;;;;;;;17.40;100.00;101941.09;4974594;28;20390;-65
2021/09/21 10:19:37;;;;;;;;;;;;;;;17.41;100.00;101940.09;4974290;28;19977;-65
2021/09/21 10:22:06;;;;;;;;;;;;;;;17.61;96.30;101932.75;4975019;28;20047;-65
2021/09/21 10:24:36;;;;;;;;;;;;;;;18.15;100.00;101927.75;4973915;28;20482;-65
2021/09/21 10:27:06;;;;;;;;;;;;;;;18.50;95.59;101929.00;4974001;28;20317;-65
2021/09/21 10:29:32;;;;;;;;;;;;;;;18.93;94.01;101931.38;4973741;28;20317;-65
2021/09/21 10:31:59;;;;;;;;;;;;;;;18.45;89.95;101934.06;4974835;28;20025;-64
2021/09/21 10:34:26;;;;;;;;;;;;;;;17.81;98.08;101939.16;4974466;28;20390;-65
2021/09/21 10:36:53;;;;;;;;;;;;;;;17.30;100.00;101941.03;4974265;28;20017;-65
2021/09/21 10:39:20;;;;;;;;;;;;;;;16.94;100.00;101950.72;4974102;28;20025;-64
2021/09/21 10:41:47;;;;;;;;;;;;;;;16.60;100.00;101956.41;4974179;28;19926;-65
2021/09/21 10:44:15;;;;;;;;;;;;;;;16.68;100.00;101951.97;4973443;28;19930;-65
2021/09/21 10:46:43;;;;;;;;;;;;;;;16.78;100.00;101959.41;4974444;28;19965;-65
2021/09/21 10:49:10;;;;;;;;;;;;;;;17.14;100.00;101958.00;4973922;28;19976;-65
2021/09/21 10:51:36;;;;;;;;;;;;;;;16.92;100.00;101959.09;4973424;28;19926;-65
2021/09/21 10:54:03;;;;;;;;;;;;;;;16.54;100.00;101968.75;4976194;28;19965;-64
2021/09/21 10:56:29;;;;;;;;;;;;;;;16.23;100.00;101964.09;4982666;28;19936;-64
2021/09/21 10:58:57;;;;;;;;;;;;;;;15.72;100.00;101972.94;4993558;28;20032;-65
2021/09/21 11:01:24;;;;;;;;;;;;;;;15.43;100.00;101975.34;4971996;28;20016;-64
2021/09/21 11:03:51;;;;;;;;;;;;;;;15.25;100.00;101980.47;4973825;28;20241;-65
2021/09/21 11:06:17;;;;;;;;;;;;;;;14.98;100.00;101987.16;4973318;28;20063;-64
2021/09/21 11:08:44;;;;;;;;;;;;;;;14.95;100.00;101982.84;4975492;28;20021;-64
2021/09/21 11:11:11;;;;;;;;;;;;;;;14.92;100.00;101979.47;4969500;28;20160;-65
2021/09/21 11:13:38;;;;;;;;;;;;;;;14.82;100.00;101982.06;4978586;28;20012;-64
2021/09/21 11:16:05;;;;;;;;;;;;;;;14.80;100.00;101989.50;4972982;28;19930;-64
2021/09/21 11:18:34;;;;;;;;;;;;;;;14.64;100.00;101995.31;4973783;28;19973;-64
2021/09/21 11:21:02;;;;;;;;;;;;;;;14.59;100.00;101997.50;4973506;28;20401;-68
2021/09/21 11:23:29;;;;;;;;;;;;;;;14.48;100.00;101993.72;4973311;28;20489;-65
2021/09/21 11:25:56;;;;;;;;;;;;;;;14.28;100.00;101988.97;4973058;28;19992;-65
2021/09/21 11:28:22;;;;;;;;;;;;;;;14.25;100.00;101986.47;4973636;28;20020;-65
2021/09/21 11:30:49;;;;;;;;;;;;;;;14.18;100.00;101984.22;4973648;28;20020;-64
2021/09/21 11:33:16;;;;;;;;;;;;;;;14.22;100.00;101979.38;4973581;28;20398;-65
2021/09/21 11:35:47;;;;;;;;;;;;;;;14.42;100.00;101975.13;4972096;28;19930;-65
2021/09/21 11:38:13;;;;;;;;;;;;;;;14.40;100.00;101968.88;4972772;28;19930;-65
2021/09/21 11:40:43;;;;;;;;;;;;;;;14.65;100.00;101967.00;4982664;28;20016;-65
2021/09/21 11:43:09;;;;;;;;;;;;;;;14.67;100.00;101962.28;4973251;28;19926;-64
2021/09/21 11:45:36;;;;;;;;;;;;;;;14.76;100.00;101949.75;4972541;28;20377;-65
2021/09/21 11:48:02;;;;;;;;;;;;;;;14.83;100.00;101951.88;4972994;28;19985;-65
2021/09/21 11:50:29;;;;;;;;;;;;;;;15.04;100.00;101954.72;4972747;28;19930;-65
2021/09/21 11:52:57;;;;;;;;;;;;;;;15.20;100.00;101940.66;4973520;28;19968;-65
2021/09/21 11:55:25;;;;;;;;;;;;;;;15.35;100.00;101954.97;4971312;28;20032;-65
2021/09/21 11:57:52;;;;;;;;;;;;;;;15.52;100.00;101945.34;4976014;28;20021;-65
2021/09/21 12:00:19;;;;;;;;;;;;;;;15.59;100.00;101942.13;4992307;28;20002;-65
2021/09/21 12:02:46;;;;;;;;;;;;;;;15.43;100.00;101951.59;4985613;28;19926;-65
2021/09/21 12:05:12;;;;;;;;;;;;;;;15.24;100.00;101954.97;4972699;28;19968;-65
2021/09/21 12:07:38;;;;;;;;;;;;;;;15.13;100.00;101957.72;4975304;28;20472;-66
2021/09/21 12:10:08;;;;;;;;;;;;;;;14.99;100.00;101964.28;4992737;28;20028;-65
2021/09/21 12:12:34;;;;;;;;;;;;;;;15.06;100.00;101954.63;4991874;28;19926;-65
2021/09/21 12:15:01;;;;;;;;;;;;;;;15.21;100.00;101950.63;4974816;28;19969;-65
2021/09/21 12:17:27;;;;;;;;;;;;;;;15.26;100.00;101955.75;4972521;28;19930;-65
2021/09/21 12:19:58;;;;;;;;;;;;;;;15.30;100.00;101956.34;4972519;28;20283;-65
2021/09/21 12:22:24;;;;;;;;;;;;;;;15.04;100.00;101948.41;4971933;28;19933;-65
2021/09/21 12:24:51;;;;;;;;;;;;;;;14.96;100.00;101950.88;4971938;28;20368;-65
2021/09/21 12:27:22;;;;;;;;;;;;;;;15.10;100.00;101947.03;4988870;28;19930;-66
2021/09/21 12:29:48;;;;;;;;;;;;;;;15.27;100.00;101948.38;4987930;28;19969;-66
2021/09/21 12:32:15;;;;;;;;;;;;;;;15.18;100.00;101939.94;4971822;28;19973;-66